createdAt,value
2018-06-25T00:00:47.352Z,14.35
2018-06-25T00:01:47.350Z,14.42
2018-06-25T00:02:47.344Z,14.37
2018-06-25T00:03:47.339Z,14.46
2018-06-25T00:04:47.343Z,14.39
2018-06-25T00:05:47.320Z,14.34
2018-06-25T00:06:47.331Z,14.31
2018-06-25T00:07:47.320Z,14.37
2018-06-25T00:08:47.326Z,14.38
2018-06-25T00:09:47.312Z,14.42
2018-06-25T00:10:47.310Z,14.38
2018-06-25T00:11:47.305Z,14.39
2018-06-25T00:12:47.300Z,14.37
2018-06-25T00:13:47.298Z,14.38
2018-06-25T00:14:47.289Z,14.44
2018-06-25T00:15:47.287Z,14.38
2018-06-25T00:16:47.288Z,14.39
2018-06-25T00:17:47.284Z,14.34
2018-06-25T00:18:47.276Z,14.38
2018-06-25T00:19:47.271Z,14.46
2018-06-25T00:20:47.267Z,14.35
2018-06-25T00:21:47.282Z,14.44
2018-06-25T00:22:47.262Z,14.35
2018-06-25T00:23:47.253Z,14.35
2018-06-25T00:24:47.250Z,14.35
2018-06-25T00:25:47.248Z,14.31
2018-06-25T00:26:47.242Z,14.37
2018-06-25T00:27:47.239Z,14.34
2018-06-25T00:28:47.233Z,14.37
2018-06-25T00:29:47.232Z,14.38
2018-06-25T00:30:47.222Z,14.38
2018-06-25T00:31:47.225Z,14.34
2018-06-25T00:32:47.222Z,14.34
2018-06-25T00:33:47.206Z,14.34
2018-06-25T00:34:47.208Z,14.37
2018-06-25T00:35:47.206Z,14.34
2018-06-25T00:36:47.204Z,14.37
2018-06-25T00:37:47.200Z,14.32
2018-06-25T00:38:47.191Z,14.38
2018-06-25T00:39:47.190Z,14.35
2018-06-25T00:40:47.181Z,14.34
2018-06-25T00:41:47.180Z,14.42
2018-06-25T00:42:47.184Z,14.39
2018-06-25T00:43:47.170Z,14.38
2018-06-25T00:44:47.172Z,14.31
2018-06-25T00:45:47.158Z,14.35
2018-06-25T00:46:47.158Z,14.37
2018-06-25T00:47:47.154Z,14.34
2018-06-25T00:48:47.176Z,14.39
2018-06-25T00:49:47.148Z,14.38
2018-06-25T00:50:47.141Z,14.38
2018-06-25T00:51:47.142Z,14.46
2018-06-25T00:52:47.138Z,14.43
2018-06-25T00:53:47.131Z,14.44
2018-06-25T00:54:47.125Z,14.47
2018-06-25T00:55:47.123Z,14.47
2018-06-25T00:56:47.115Z,14.42
2018-06-25T00:57:47.109Z,14.46
2018-06-25T00:58:47.163Z,14.53
2018-06-25T00:59:47.112Z,14.42
2018-06-25T01:00:47.102Z,14.39
2018-06-25T01:01:47.088Z,14.43
2018-06-25T01:02:47.087Z,14.54
2018-06-25T01:03:47.083Z,14.39
2018-06-25T01:04:47.078Z,14.52
2018-06-25T01:05:47.074Z,14.42
2018-06-25T01:06:47.071Z,14.46
2018-06-25T01:07:47.067Z,14.50
2018-06-25T01:08:47.063Z,14.43
2018-06-25T01:09:47.075Z,14.38
2018-06-25T01:10:47.055Z,14.35
2018-06-25T01:11:47.051Z,14.35
2018-06-25T01:12:47.051Z,14.27
2018-06-25T01:13:47.044Z,14.20
2018-06-25T01:14:47.047Z,14.21
2018-06-25T01:15:47.030Z,14.16
2018-06-25T01:16:47.034Z,14.16
2018-06-25T01:17:47.025Z,14.10
2018-06-25T01:18:47.045Z,14.07
2018-06-25T01:19:47.017Z,14.14
2018-06-25T01:20:47.008Z,14.09
2018-06-25T01:21:47.007Z,14.04
2018-06-25T01:22:46.999Z,14.07
2018-06-25T01:23:46.999Z,14.09
2018-06-25T01:24:46.993Z,14.06
2018-06-25T01:25:46.990Z,13.98
2018-06-25T01:26:46.988Z,13.96
2018-06-25T01:27:46.980Z,13.95
2018-06-25T01:28:46.976Z,13.92
2018-06-25T01:29:46.972Z,13.88
2018-06-25T02:03:14.855Z,13.69
2018-06-25T02:04:14.823Z,13.65
2018-06-25T02:06:07.772Z,13.73
2018-06-25T02:07:07.749Z,13.71
2018-06-25T02:09:00.632Z,13.63
2018-06-25T02:10:00.618Z,13.65
2018-06-25T02:11:53.559Z,13.63
2018-06-25T02:12:53.537Z,13.73
2018-06-25T02:14:46.700Z,13.65
2018-06-25T02:15:46.689Z,13.58
2018-06-25T02:17:39.819Z,13.63
2018-06-25T02:18:39.789Z,13.67
2018-06-25T02:20:32.719Z,13.65
2018-06-25T02:21:32.700Z,13.63
2018-06-25T02:23:25.610Z,13.55
2018-06-25T02:24:25.580Z,13.62
2018-06-25T02:26:18.527Z,13.62
2018-06-25T02:27:18.491Z,13.55
2018-06-25T02:29:11.829Z,13.56
2018-06-25T02:30:11.797Z,13.52
2018-06-25T02:32:55.939Z,13.47
2018-06-25T02:33:55.881Z,13.51
2018-06-25T02:35:48.796Z,13.62
2018-06-25T02:36:48.784Z,13.54
2018-06-25T02:38:41.785Z,13.54
2018-06-25T02:39:41.681Z,13.51
2018-06-25T02:41:34.590Z,13.51
2018-06-25T02:42:34.564Z,13.38
2018-06-25T02:44:27.462Z,13.46
2018-06-25T02:45:27.445Z,13.40
2018-06-25T02:47:20.363Z,13.25
2018-06-25T02:48:20.342Z,13.43
2018-06-25T02:50:13.221Z,13.36
2018-06-25T02:51:13.210Z,13.32
2018-06-25T02:53:06.136Z,13.37
2018-06-25T02:54:06.089Z,13.30
2018-06-25T02:55:58.983Z,13.24
2018-06-25T02:56:58.961Z,13.32
2018-06-25T02:58:52.177Z,13.18
2018-06-25T02:59:52.152Z,13.24
2018-06-25T03:01:45.114Z,13.32
2018-06-25T03:02:45.095Z,13.20
2018-06-25T03:04:38.283Z,13.22
2018-06-25T03:05:38.273Z,13.17
2018-06-25T03:07:31.450Z,13.09
2018-06-25T03:08:31.444Z,13.09
2018-06-25T03:10:24.266Z,13.17
2018-06-25T03:11:24.226Z,13.06
2018-06-25T03:13:17.141Z,12.99
2018-06-25T03:14:17.115Z,13.00
2018-06-25T03:16:10.023Z,12.95
2018-06-25T03:17:10.002Z,12.92
2018-06-25T03:19:02.934Z,12.95
2018-06-25T03:20:02.902Z,12.96
2018-06-25T03:21:55.829Z,12.88
2018-06-25T03:22:55.804Z,12.87
2018-06-25T03:24:48.715Z,12.82
2018-06-25T03:25:48.705Z,12.77
2018-06-25T03:27:41.605Z,12.77
2018-06-25T03:28:41.583Z,12.74
2018-06-25T03:30:34.564Z,12.74
2018-06-25T03:31:34.544Z,12.66
2018-06-25T03:33:27.510Z,12.66
2018-06-25T03:34:27.482Z,12.70
2018-06-25T03:36:20.402Z,12.66
2018-06-25T03:37:20.389Z,12.60
2018-06-25T03:39:13.286Z,12.62
2018-06-25T03:40:13.267Z,12.54
2018-06-25T03:42:06.171Z,12.56
2018-06-25T03:43:06.145Z,12.63
2018-06-25T03:44:59.039Z,12.64
2018-06-25T03:45:59.022Z,12.51
2018-06-25T03:47:51.928Z,12.51
2018-06-25T03:48:51.911Z,12.56
2018-06-25T03:50:44.816Z,12.51
2018-06-25T03:51:44.803Z,12.57
2018-06-25T03:53:37.727Z,12.49
2018-06-25T03:54:37.702Z,12.51
2018-06-25T03:56:30.619Z,12.59
2018-06-25T03:57:30.608Z,12.54
2018-06-25T03:59:23.549Z,12.57
2018-06-25T04:00:23.525Z,12.60
2018-06-25T04:03:07.536Z,12.52
2018-06-25T04:04:07.520Z,12.64
2018-06-25T04:06:00.429Z,12.56
2018-06-25T04:07:00.407Z,12.62
2018-06-25T04:08:53.323Z,12.60
2018-06-25T04:09:53.283Z,12.56
2018-06-25T04:11:46.182Z,12.62
2018-06-25T04:12:46.169Z,12.63
2018-06-25T04:14:39.089Z,12.60
2018-06-25T04:15:39.065Z,12.63
2018-06-25T04:17:32.037Z,12.74
2018-06-25T04:18:31.977Z,12.78
2018-06-25T04:20:24.885Z,12.79
2018-06-25T04:21:24.874Z,12.74
2018-06-25T04:22:24.869Z,12.71
2018-06-25T04:23:24.868Z,12.75
2018-06-25T04:24:24.858Z,12.78
2018-06-25T04:25:24.857Z,12.81
2018-06-25T04:26:24.855Z,12.87
2018-06-25T04:27:24.845Z,12.81
2018-06-25T04:28:24.838Z,12.84
2018-06-25T04:29:24.837Z,12.77
2018-06-25T04:30:24.834Z,12.79
2018-06-25T04:31:24.834Z,12.84
2018-06-25T04:32:24.823Z,12.82
2018-06-25T04:33:24.823Z,12.81
2018-06-25T04:34:24.813Z,12.87
2018-06-25T04:35:24.801Z,12.81
2018-06-25T04:36:24.801Z,12.77
2018-06-25T04:37:24.799Z,12.88
2018-06-25T04:38:24.791Z,12.92
2018-06-25T04:39:24.791Z,12.89
2018-06-25T04:40:24.805Z,12.92
2018-06-25T04:41:24.812Z,12.96
2018-06-25T04:42:24.769Z,12.82
2018-06-25T04:43:24.767Z,12.95
2018-06-25T04:44:24.758Z,13.04
2018-06-25T04:45:24.755Z,12.96
2018-06-25T04:46:24.751Z,13.06
2018-06-25T04:47:24.764Z,12.93
2018-06-25T04:48:24.740Z,13.07
2018-06-25T04:49:24.733Z,13.02
2018-06-25T04:50:24.769Z,13.07
2018-06-25T04:51:24.737Z,13.02
2018-06-25T04:52:24.717Z,13.03
2018-06-25T04:53:24.715Z,13.09
2018-06-25T04:54:24.711Z,13.06
2018-06-25T04:55:24.709Z,12.95
2018-06-25T04:56:24.699Z,13.02
2018-06-25T04:57:24.691Z,12.99
2018-06-25T04:58:24.692Z,12.96
2018-06-25T04:59:24.689Z,12.92
2018-06-25T05:00:24.679Z,12.89
2018-06-25T05:01:24.678Z,12.99
2018-06-25T05:02:24.689Z,12.96
2018-06-25T05:03:24.670Z,12.99
2018-06-25T05:04:24.658Z,12.99
2018-06-25T05:05:24.659Z,12.92
2018-06-25T05:06:24.656Z,13.07
2018-06-25T05:07:24.652Z,13.04
2018-06-25T05:08:24.644Z,13.04
2018-06-25T05:09:24.639Z,13.09
2018-06-25T05:10:24.664Z,13.02
2018-06-25T05:11:24.628Z,13.04
2018-06-25T05:12:24.629Z,13.02
2018-06-25T05:13:24.623Z,13.06
2018-06-25T05:14:24.615Z,13.07
2018-06-25T05:15:24.618Z,13.07
2018-06-25T05:16:24.605Z,13.04
2018-06-25T05:17:24.602Z,13.07
2018-06-25T05:18:24.599Z,13.07
2018-06-25T05:19:24.596Z,13.07
2018-06-25T05:20:24.588Z,13.15
2018-06-25T05:21:24.581Z,13.02
2018-06-25T05:22:24.581Z,13.06
2018-06-25T05:23:24.573Z,13.15
2018-06-25T05:24:24.571Z,13.18
2018-06-25T05:25:24.584Z,13.22
2018-06-25T05:26:24.562Z,13.12
2018-06-25T05:27:24.554Z,13.18
2018-06-25T05:28:24.550Z,13.11
2018-06-25T05:29:24.546Z,13.20
2018-06-25T05:30:24.549Z,13.11
2018-06-25T05:31:24.539Z,13.20
2018-06-25T05:32:24.534Z,13.24
2018-06-25T05:33:24.530Z,13.15
2018-06-25T05:34:24.524Z,13.27
2018-06-25T05:35:24.512Z,13.27
2018-06-25T05:36:24.515Z,13.30
2018-06-25T05:37:24.509Z,13.36
2018-06-25T05:38:24.501Z,13.40
2018-06-25T05:39:24.500Z,13.27
2018-06-25T05:40:24.499Z,13.44
2018-06-25T05:41:24.493Z,13.41
2018-06-25T05:42:24.528Z,13.46
2018-06-25T05:43:24.488Z,13.52
2018-06-25T05:44:24.517Z,13.54
2018-06-25T05:45:24.496Z,13.51
2018-06-25T05:46:24.470Z,13.59
2018-06-25T05:47:24.468Z,13.58
2018-06-25T05:48:24.465Z,13.65
2018-06-25T05:49:24.457Z,13.79
2018-06-25T05:50:24.454Z,13.87
2018-06-25T05:51:24.453Z,13.83
2018-06-25T05:52:24.446Z,13.71
2018-06-25T05:53:24.442Z,13.77
2018-06-25T05:54:24.449Z,13.81
2018-06-25T05:55:24.433Z,13.87
2018-06-25T05:56:24.431Z,13.87
2018-06-25T05:57:24.460Z,13.84
2018-06-25T05:58:24.423Z,13.95
2018-06-25T05:59:24.424Z,14.02
2018-06-25T06:00:24.415Z,14.10
2018-06-25T06:01:24.412Z,14.09
2018-06-25T06:02:24.407Z,14.13
2018-06-25T06:03:24.404Z,14.16
2018-06-25T06:04:24.406Z,14.13
2018-06-25T06:05:24.396Z,14.12
2018-06-25T06:06:24.396Z,13.96
2018-06-25T06:07:24.391Z,14.04
2018-06-25T06:08:24.388Z,13.96
2018-06-25T06:09:24.386Z,13.99
2018-06-25T06:10:24.379Z,14.01
2018-06-25T06:11:24.375Z,13.96
2018-06-25T06:12:24.415Z,14.02
2018-06-25T06:13:24.367Z,13.88
2018-06-25T06:14:24.373Z,13.91
2018-06-25T06:15:24.362Z,13.99
2018-06-25T06:16:24.360Z,14.07
2018-06-25T06:17:24.380Z,14.09
2018-06-25T06:18:24.347Z,14.07
2018-06-25T06:19:24.344Z,14.13
2018-06-25T06:20:24.344Z,14.14
2018-06-25T06:21:24.341Z,14.12
2018-06-25T06:22:24.339Z,14.19
2018-06-25T06:23:24.335Z,14.24
2018-06-25T06:24:24.336Z,14.17
2018-06-25T06:25:24.330Z,14.20
2018-06-25T06:26:24.399Z,14.12
2018-06-25T06:27:24.328Z,14.04
2018-06-25T06:28:24.315Z,14.09
2018-06-25T06:30:53.171Z,14.17
2018-06-25T08:04:00.124Z,21.61
2018-06-25T08:05:29.120Z,21.56
2018-06-25T13:36:57.415Z,21.60
2018-06-25T16:44:26.249Z,20.09
2018-06-25T16:46:05.419Z,20.02
2018-06-25T17:30:29.060Z,19.60
2018-06-25T21:27:07.081Z,15.70
